createdAt,value
2022-08-01T00:01:41.407Z,55.15
2022-08-01T01:03:57.661Z,70.97
2022-08-01T01:14:07.707Z,72.51
2022-08-01T03:21:59.694Z,81.54
2022-08-01T03:25:08.813Z,81.46
2022-08-01T03:27:40.566Z,81.81
2022-08-01T03:30:20.370Z,81.66
2022-08-01T03:32:53.616Z,81.98
2022-08-01T03:36:15.061Z,82.12
2022-08-01T03:38:49.683Z,82.28
2022-08-01T03:41:46.699Z,82.56
2022-08-01T03:44:33.274Z,82.25
2022-08-01T03:47:10.359Z,81.84
2022-08-01T03:53:36.901Z,82.12
2022-08-01T03:56:09.727Z,82.32
2022-08-01T03:58:40.356Z,82.29
2022-08-01T04:01:08.122Z,81.87
2022-08-01T04:03:43.728Z,81.91
2022-08-01T04:06:11.633Z,81.89
2022-08-01T04:08:39.593Z,81.92
2022-08-01T04:11:06.384Z,81.94
2022-08-01T04:13:36.688Z,81.99
2022-08-01T04:16:04.555Z,81.88
2022-08-01T04:18:31.291Z,81.98
2022-08-01T04:20:58.012Z,82.30
2022-08-01T04:23:26.631Z,82.38
2022-08-01T04:29:21.130Z,82.33
2022-08-01T04:31:58.784Z,82.51
2022-08-01T04:35:22.949Z,82.41
2022-08-01T04:38:19.534Z,82.19
2022-08-01T04:40:53.303Z,81.91
2022-08-01T04:43:29.209Z,81.77
2022-08-01T04:50:10.774Z,82.15
2022-08-01T04:53:25.236Z,82.54
2022-08-01T04:56:06.588Z,82.87
2022-08-01T04:58:36.757Z,82.58
2022-08-01T05:01:25.459Z,82.92
2022-08-01T05:03:58.206Z,82.93
2022-08-01T05:06:26.254Z,83.47
2022-08-01T05:08:53.498Z,83.21
2022-08-01T05:11:23.295Z,83.32
2022-08-01T05:13:50.362Z,83.64
2022-08-01T05:16:23.399Z,83.88
2022-08-01T05:18:50.426Z,83.55
2022-08-01T05:21:37.441Z,83.80
2022-08-01T05:24:07.742Z,83.91
2022-08-01T05:27:11.666Z,83.95
2022-08-01T05:29:45.065Z,84.14
2022-08-01T05:32:56.432Z,84.20
2022-08-01T05:35:47.834Z,84.16
2022-08-01T05:38:48.850Z,83.88
2022-08-01T05:44:35.436Z,84.00
2022-08-01T05:47:12.631Z,83.83
2022-08-01T05:52:44.572Z,83.91
2022-08-01T05:55:18.762Z,84.00
2022-08-01T05:57:52.684Z,83.95
2022-08-01T06:00:36.162Z,84.23
2022-08-01T06:03:06.247Z,84.00
2022-08-01T06:05:36.951Z,83.94
2022-08-01T06:08:16.251Z,83.74
2022-08-01T06:10:50.482Z,84.16
2022-08-01T06:13:56.448Z,83.99
2022-08-01T06:20:25.523Z,84.12
2022-08-01T06:22:55.808Z,84.22
2022-08-01T06:25:29.025Z,84.06
2022-08-01T06:28:31.155Z,83.92
2022-08-01T06:31:24.086Z,83.59
2022-08-01T06:33:51.373Z,83.95
2022-08-01T06:36:19.158Z,83.57
2022-08-01T06:38:45.939Z,83.55
2022-08-01T06:41:12.850Z,83.39
2022-08-01T06:43:41.945Z,83.52
2022-08-01T06:46:16.010Z,83.25
2022-08-01T06:48:53.940Z,82.98
2022-08-01T06:51:21.850Z,82.90
2022-08-01T06:53:50.983Z,82.81
2022-08-01T06:56:17.750Z,82.62
2022-08-01T06:58:44.582Z,82.76
2022-08-01T07:01:11.423Z,82.31
2022-08-01T07:03:53.537Z,82.21
2022-08-01T07:06:23.364Z,82.08
2022-08-01T07:08:50.200Z,81.50
2022-08-01T07:11:20.122Z,81.61
2022-08-01T07:13:49.714Z,81.25
2022-08-01T07:16:17.164Z,81.55
2022-08-01T07:18:46.513Z,81.02
2022-08-01T07:21:39.850Z,81.01
2022-08-01T07:24:11.360Z,81.40
2022-08-01T07:27:25.746Z,81.42
2022-08-01T07:29:55.535Z,81.38
2022-08-01T07:32:25.369Z,81.22
2022-08-01T07:34:52.672Z,81.29
2022-08-01T07:37:44.287Z,81.25
2022-08-01T07:40:09.934Z,81.34
2022-08-01T07:42:38.155Z,81.09
2022-08-01T07:45:05.582Z,80.63
2022-08-01T07:47:32.342Z,79.96
2022-08-01T07:50:03.537Z,79.26
2022-08-01T07:52:31.335Z,78.95
2022-08-01T07:54:58.941Z,78.39
2022-08-01T07:57:26.552Z,78.24
2022-08-01T07:59:53.300Z,77.90
2022-08-01T08:02:20.230Z,77.94
2022-08-01T08:04:49.493Z,78.16
2022-08-01T08:07:19.125Z,78.28
2022-08-01T08:09:45.823Z,78.48
2022-08-01T08:12:28.936Z,78.42
2022-08-01T08:26:05.264Z,77.43
2022-08-01T08:28:32.339Z,77.77
2022-08-01T08:30:59.275Z,77.78
2022-08-01T08:33:26.189Z,77.85
2022-08-01T08:35:55.231Z,77.96
2022-08-01T08:38:28.493Z,77.74
2022-08-01T08:40:57.739Z,77.08
2022-08-01T08:43:27.000Z,77.08
2022-08-01T08:45:59.606Z,76.32
2022-08-01T08:48:27.787Z,76.12
2022-08-01T08:50:55.884Z,76.15
2022-08-01T08:53:22.967Z,76.24
2022-08-01T08:55:56.003Z,75.84
2022-08-01T08:58:30.666Z,75.76
2022-08-01T09:00:58.994Z,75.07
2022-08-01T09:03:26.100Z,75.01
2022-08-01T09:05:55.330Z,74.58
2022-08-01T09:08:23.849Z,74.15
2022-08-01T09:10:50.707Z,74.17
2022-08-01T09:13:17.533Z,73.30
2022-08-01T09:15:54.672Z,73.87
2022-08-01T09:18:33.459Z,73.70
2022-08-01T09:21:12.366Z,73.67
2022-08-01T09:23:53.868Z,74.06
2022-08-01T09:26:33.969Z,74.08
2022-08-01T09:29:03.519Z,73.77
2022-08-01T09:31:47.523Z,73.99
2022-08-01T09:34:15.775Z,73.94
2022-08-01T09:36:52.243Z,73.73
2022-08-01T09:39:23.272Z,74.00
2022-08-01T09:41:50.439Z,73.92
2022-08-01T09:44:19.018Z,73.22
2022-08-01T09:47:00.307Z,73.22
2022-08-01T09:49:50.506Z,73.56
2022-08-01T09:52:20.825Z,73.44
2022-08-01T09:54:57.153Z,73.25
2022-08-01T09:57:24.748Z,72.97
2022-08-01T09:59:59.000Z,72.49
2022-08-01T10:02:34.540Z,71.44
2022-08-01T10:05:03.556Z,71.18
2022-08-01T10:07:43.752Z,71.44
2022-08-01T10:10:15.318Z,71.34
2022-08-01T10:12:45.168Z,71.42
2022-08-01T10:15:16.556Z,71.06
2022-08-01T10:17:57.119Z,70.84
2022-08-01T10:20:34.052Z,70.75
2022-08-01T10:23:06.916Z,70.62
2022-08-01T10:25:46.619Z,70.72
2022-08-01T10:28:23.900Z,71.11
2022-08-01T10:30:53.212Z,71.00
2022-08-01T10:33:51.784Z,70.95
2022-08-01T10:36:13.984Z,70.92
2022-08-01T10:38:40.823Z,71.08
2022-08-01T10:41:08.894Z,71.55
2022-08-01T10:43:38.802Z,71.56
2022-08-01T10:46:08.640Z,71.79
2022-08-01T10:48:52.208Z,71.74
2022-08-01T10:51:51.346Z,71.59
2022-08-01T10:54:14.279Z,71.41
2022-08-01T10:56:44.747Z,70.64
2022-08-01T10:59:15.934Z,69.44
2022-08-01T11:01:44.701Z,69.73
2022-08-01T11:04:18.580Z,69.58
2022-08-01T11:07:06.671Z,69.83
2022-08-01T11:09:51.377Z,70.77
2022-08-01T11:12:24.767Z,71.22
2022-08-01T11:15:02.702Z,71.43
2022-08-01T11:17:48.855Z,71.46
2022-08-01T11:20:34.218Z,71.84
2022-08-01T11:23:07.747Z,72.00
2022-08-01T11:26:05.344Z,72.10
2022-08-01T11:28:30.084Z,72.49
2022-08-01T11:31:07.952Z,71.92
2022-08-01T11:33:46.934Z,71.56
2022-08-01T11:36:56.840Z,71.91
2022-08-01T11:39:13.074Z,72.18
2022-08-01T11:41:45.251Z,72.05
2022-08-01T11:44:21.055Z,72.13
2022-08-01T11:46:51.408Z,72.14
2022-08-01T11:49:36.095Z,71.47
2022-08-01T11:55:39.351Z,70.83
2022-08-01T11:58:22.147Z,71.09
2022-08-01T12:01:00.554Z,71.59
2022-08-01T12:03:59.582Z,71.01
2022-08-01T12:07:24.314Z,71.48
2022-08-01T12:11:02.405Z,70.95
2022-08-01T12:14:10.667Z,70.70
2022-08-01T12:17:13.122Z,71.18
2022-08-01T12:19:53.779Z,71.55
2022-08-01T12:22:29.905Z,71.74
2022-08-01T12:25:11.291Z,71.92
2022-08-01T12:27:39.336Z,72.43
2022-08-01T12:30:12.294Z,72.27
2022-08-01T12:32:41.425Z,71.98
2022-08-01T12:35:12.359Z,71.87
2022-08-01T12:37:42.887Z,71.83
2022-08-01T12:40:18.760Z,70.93
2022-08-01T12:42:47.850Z,71.26
2022-08-01T12:45:17.275Z,71.39
2022-08-01T12:47:44.515Z,70.39
2022-08-01T12:50:16.805Z,69.75
2022-08-01T12:52:44.070Z,69.43
2022-08-01T12:55:18.536Z,68.84
2022-08-01T12:57:54.411Z,68.35
2022-08-01T13:00:24.144Z,68.16
2022-08-01T13:03:02.960Z,68.14
2022-08-01T13:05:42.563Z,67.57
2022-08-01T13:08:17.572Z,67.81
2022-08-01T13:10:45.058Z,67.47
2022-08-01T13:13:28.040Z,67.45
2022-08-01T13:16:05.422Z,67.89
2022-08-01T13:18:33.587Z,67.45
2022-08-01T13:21:17.699Z,67.57
2022-08-01T13:24:07.298Z,67.32
2022-08-01T13:26:41.608Z,67.41
2022-08-01T13:29:09.582Z,66.97
2022-08-01T13:31:37.426Z,66.77
2022-08-01T13:34:04.743Z,66.23
2022-08-01T13:36:32.258Z,65.77
2022-08-01T13:39:18.677Z,64.94
2022-08-01T13:41:46.508Z,63.85
2022-08-01T13:44:14.353Z,63.44
2022-08-01T13:46:49.889Z,63.67
2022-08-01T13:49:18.928Z,63.58
2022-08-01T13:51:46.947Z,62.95
2022-08-01T13:54:13.798Z,63.07
2022-08-01T13:56:40.503Z,62.65
2022-08-01T13:59:07.645Z,62.47
2022-08-01T14:01:35.330Z,63.23
2022-08-01T14:04:03.139Z,63.63
2022-08-01T14:06:30.022Z,64.02
2022-08-01T14:08:56.765Z,63.83
2022-08-01T14:11:23.683Z,64.22
2022-08-01T14:13:50.523Z,64.22
2022-08-01T14:16:18.007Z,64.47
2022-08-01T14:18:50.038Z,64.45
2022-08-01T14:21:22.399Z,64.51
2022-08-01T14:23:49.181Z,64.97
2022-08-01T14:26:15.864Z,64.89
2022-08-01T14:28:42.632Z,64.93
2022-08-01T14:31:09.529Z,65.36
2022-08-01T14:33:38.893Z,65.42
2022-08-01T14:36:29.533Z,66.19
2022-08-01T14:38:52.710Z,66.57
2022-08-01T14:41:28.725Z,66.73
2022-08-01T14:44:14.431Z,66.77
2022-08-01T14:46:57.221Z,66.72
2022-08-01T14:49:24.415Z,66.52
2022-08-01T14:51:51.584Z,66.25
2022-08-01T14:54:18.398Z,65.60
2022-08-01T14:56:54.178Z,64.79
2022-08-01T14:59:21.242Z,64.31
2022-08-01T15:01:48.577Z,63.96
2022-08-01T15:04:15.351Z,63.13
2022-08-01T15:06:42.236Z,62.30
2022-08-01T15:09:09.575Z,61.43
2022-08-01T15:11:36.408Z,60.04
2022-08-01T15:14:21.852Z,58.40
2022-08-01T15:16:48.864Z,56.23
2022-08-01T15:19:17.593Z,52.99
2022-08-01T15:21:44.654Z,51.36
2022-08-01T15:24:11.469Z,51.11
2022-08-01T15:26:40.763Z,49.99
2022-08-01T15:29:07.725Z,50.14
2022-08-01T15:31:36.441Z,49.60
2022-08-01T15:34:05.968Z,49.91
2022-08-01T15:36:35.256Z,49.13
2022-08-01T15:39:03.482Z,48.95
2022-08-01T15:41:30.231Z,48.86
2022-08-01T15:43:56.991Z,47.51
2022-08-01T15:46:24.561Z,47.47
2022-08-01T15:48:51.511Z,46.33
2022-08-01T15:51:18.566Z,46.98
2022-08-01T15:54:03.790Z,47.67
2022-08-01T15:56:31.130Z,48.51
2022-08-01T15:58:58.437Z,49.16
2022-08-01T16:01:27.105Z,49.71
2022-08-01T16:03:55.310Z,49.94
2022-08-01T16:06:22.266Z,50.50
2022-08-01T16:08:50.124Z,50.54
2022-08-01T16:11:20.363Z,50.88
2022-08-01T16:13:48.836Z,51.21
2022-08-01T16:19:57.639Z,52.59
2022-08-01T16:22:24.418Z,52.92
2022-08-01T16:25:00.604Z,53.26
2022-08-01T16:27:31.041Z,53.94
2022-08-01T16:29:57.838Z,54.25
2022-08-01T16:32:29.216Z,54.88
2022-08-01T16:35:11.245Z,55.04
2022-08-01T16:37:41.648Z,55.02
2022-08-01T16:43:53.601Z,55.07
2022-08-01T16:46:40.933Z,55.17
2022-08-01T16:49:38.067Z,55.66
2022-08-01T16:52:05.588Z,55.80
2022-08-01T16:54:35.547Z,55.82
2022-08-01T17:04:07.302Z,56.83
2022-08-01T17:07:03.153Z,56.67
2022-08-01T17:10:31.720Z,56.93
2022-08-01T17:12:58.874Z,56.98
2022-08-01T17:15:34.432Z,57.41
2022-08-01T17:18:06.635Z,57.25
2022-08-01T17:20:41.579Z,57.18
2022-08-01T17:23:23.316Z,57.03
2022-08-01T17:25:53.292Z,56.69
2022-08-01T17:28:20.468Z,56.09
2022-08-01T17:30:47.331Z,55.17
2022-08-01T17:33:16.787Z,55.29
2022-08-01T17:35:43.815Z,55.86
2022-08-01T17:41:37.106Z,55.68
2022-08-01T17:50:19.244Z,56.64
2022-08-01T17:52:51.601Z,56.92
2022-08-01T17:55:55.249Z,57.38
2022-08-01T17:59:08.320Z,57.65
2022-08-01T18:02:39.172Z,57.61
2022-08-01T18:05:42.082Z,57.53
2022-08-01T18:12:45.385Z,56.93
2022-08-01T18:15:25.881Z,56.86
2022-08-01T18:21:16.505Z,56.59
2022-08-01T18:23:51.250Z,56.52
2022-08-01T18:26:21.814Z,56.60
2022-08-01T18:29:46.687Z,56.03
2022-08-01T18:32:27.988Z,56.78
2022-08-01T18:34:53.520Z,56.59
2022-08-01T18:37:20.246Z,56.76
2022-08-01T18:39:50.482Z,56.71
2022-08-01T18:42:17.938Z,56.49
2022-08-01T18:44:44.670Z,57.07
2022-08-01T18:47:12.355Z,57.23
2022-08-01T18:49:39.344Z,57.70
2022-08-01T18:52:58.144Z,57.45
2022-08-01T18:55:25.918Z,57.89
2022-08-01T18:57:52.592Z,57.92
2022-08-01T19:00:19.920Z,58.20
2022-08-01T19:02:46.944Z,57.94
2022-08-01T19:05:13.673Z,58.26
2022-08-01T19:08:06.017Z,58.19
2022-08-01T19:10:27.354Z,58.64
2022-08-01T19:12:54.309Z,58.58
2022-08-01T19:15:21.126Z,58.71
2022-08-01T19:17:47.915Z,58.79
2022-08-01T19:20:17.165Z,58.97
2022-08-01T19:22:44.071Z,58.91
2022-08-01T19:25:10.805Z,59.06
2022-08-01T19:27:42.616Z,58.83
2022-08-01T19:30:10.253Z,58.92
2022-08-01T19:32:37.461Z,58.98
2022-08-01T19:35:05.766Z,59.02
2022-08-01T19:37:32.850Z,59.39
2022-08-01T19:40:00.273Z,59.29
2022-08-01T19:42:28.664Z,59.56
2022-08-01T19:44:55.639Z,59.18
2022-08-01T19:47:22.439Z,59.47
2022-08-01T19:49:49.356Z,59.82
2022-08-01T19:52:19.762Z,59.53
2022-08-01T19:54:47.509Z,60.33
2022-08-01T19:57:16.240Z,60.43
2022-08-01T19:59:46.601Z,60.50
2022-08-01T20:02:18.258Z,60.41
2022-08-01T20:04:45.706Z,60.55
2022-08-01T20:07:12.952Z,61.04
2022-08-01T20:09:41.094Z,61.24
2022-08-01T20:12:08.414Z,61.26
2022-08-01T20:14:35.262Z,61.57
2022-08-01T20:17:02.127Z,61.91
2022-08-01T20:19:30.614Z,62.16
2022-08-01T20:22:02.572Z,62.23
2022-08-01T20:24:39.470Z,62.57
2022-08-01T20:27:07.662Z,62.50
2022-08-01T20:29:34.794Z,63.01
2022-08-01T20:32:02.979Z,62.94
2022-08-01T20:34:30.319Z,62.98
2022-08-01T20:36:57.353Z,63.25
2022-08-01T20:39:24.455Z,63.65
2022-08-01T20:42:00.183Z,63.26
2022-08-01T20:44:31.659Z,63.78
2022-08-01T20:47:01.350Z,63.73
2022-08-01T20:49:28.528Z,63.89
2022-08-01T20:51:55.238Z,64.26
2022-08-01T20:54:21.950Z,64.55
2022-08-01T20:56:59.210Z,64.71
2022-08-01T20:59:39.545Z,64.71
2022-08-01T21:02:48.895Z,65.08
2022-08-01T21:05:23.269Z,65.69
2022-08-01T21:08:00.170Z,65.87
2022-08-01T21:10:28.882Z,65.85
2022-08-01T21:13:03.160Z,66.08
2022-08-01T21:16:04.176Z,66.32
2022-08-01T21:19:16.858Z,66.85
2022-08-01T21:21:43.262Z,66.99
2022-08-01T21:24:17.277Z,66.86
2022-08-01T21:26:46.017Z,67.04
2022-08-01T21:29:13.333Z,67.19
2022-08-01T21:31:41.515Z,67.59
2022-08-01T21:34:08.950Z,67.78
2022-08-01T21:36:36.353Z,67.57
2022-08-01T21:39:05.882Z,68.03
2022-08-01T21:42:01.057Z,68.04
2022-08-01T21:44:20.048Z,67.88
2022-08-01T21:46:48.382Z,67.91
2022-08-01T21:49:15.362Z,67.87
2022-08-01T21:51:54.332Z,68.39
2022-08-01T21:54:28.863Z,68.42
2022-08-01T21:57:27.174Z,68.73
2022-08-01T22:00:25.250Z,68.92
2022-08-01T22:03:26.718Z,69.02
2022-08-01T22:05:54.369Z,69.39
2022-08-01T22:08:51.084Z,69.33
2022-08-01T22:11:23.120Z,69.06
2022-08-01T22:13:54.220Z,69.62
2022-08-01T22:16:21.354Z,69.19
2022-08-01T22:18:48.757Z,69.72
2022-08-01T22:21:17.235Z,69.84
2022-08-01T22:23:44.394Z,69.97
2022-08-01T22:26:12.870Z,70.15
2022-08-01T22:28:40.526Z,69.87
2022-08-01T22:31:07.495Z,69.79
2022-08-01T22:33:38.274Z,69.52
2022-08-01T22:36:06.818Z,69.85
2022-08-01T22:38:33.732Z,70.32
2022-08-01T22:41:09.792Z,70.85
2022-08-01T22:43:40.908Z,70.94
2022-08-01T22:46:17.684Z,70.87
2022-08-01T22:48:46.846Z,70.99
2022-08-01T22:51:25.383Z,70.78
2022-08-01T22:54:07.089Z,70.83
2022-08-01T22:56:39.236Z,70.57
2022-08-01T22:59:12.520Z,70.78
2022-08-01T23:01:42.096Z,70.78
2022-08-01T23:04:21.397Z,70.80
2022-08-01T23:06:59.533Z,71.10
2022-08-01T23:09:52.847Z,70.78
2022-08-01T23:12:13.888Z,71.11
2022-08-01T23:14:41.121Z,71.07
2022-08-01T23:17:27.547Z,71.03
2022-08-01T23:20:01.150Z,71.30
2022-08-01T23:22:31.268Z,71.05
2022-08-01T23:25:05.076Z,71.11
2022-08-01T23:27:56.046Z,71.21
2022-08-01T23:30:24.465Z,71.22
2022-08-01T23:32:51.215Z,71.22
2022-08-01T23:35:18.063Z,71.07
2022-08-01T23:37:44.889Z,71.44
2022-08-01T23:40:12.148Z,71.65
2022-08-01T23:42:38.907Z,71.56
2022-08-01T23:45:07.161Z,71.84
2022-08-01T23:47:33.935Z,72.14
2022-08-01T23:50:00.739Z,71.90
2022-08-01T23:52:32.446Z,71.93
2022-08-01T23:55:07.847Z,71.94
2022-08-01T23:57:41.672Z,72.38
